Hutchinson, KS

11:14 PM CDT on April 18, 2015 (GMT -0500)
KKSHUTCH9 | | Change Station
CLOSE
Current Station
Personal Weather Station
Location: Hutchinson, KS
Elevation: 1549 ft
Nearby Weather Stations

Elev 1549 ft 38.08 °N, 97.92 °W | Updated 12 seconds ago

Rain
Rain
55.0 °F
Feels Like 55.0 °F
N
6.9
Wind Variable Wind from East
Gusts 6.9 mph

Today
High -- | Low -- °F
--% Chance of Precip.
Yesterday
High -- | Low -- °F
Precip. -- in
6:52 AM 8:10 PM
New Moon, 0% visible
Pressure 29.80 in
Visibility 10.0 miles
Clouds Few 3100 ft
Scattered Clouds 7000 ft
Overcast 8500 ft
Dew Point 53 °F
Humidity 94%
Rainfall 0.56 in
Snow Depth Not available.
UV 0 out of 12
Pollen 7.70 out of 12
Air Quality Not available.
Flu Activity Sporadic
METAR KHUT 190352Z 07004KT 10SM FEW031 SCT070 OVC085 13/10 A2983 RMK AO2 PK WND 28026/0317 LTG DSNT SE RAB39E50 SLP089 P0000 T01330100

More Conditions Fewer Conditions

Pressure 29.80 in
Visibility 10.0 miles
Clouds Few 3100 ft
Scattered Clouds 7000 ft
Overcast 8500 ft
Dew Point 53 °F
Humidity 94%
Rainfall 0.56 in
Snow Depth Not available.
UV 0 out of 12
Pollen 7.70 out of 12
Air Quality Not available.
Flu Activity Sporadic
METAR KHUT 190352Z 07004KT 10SM FEW031 SCT070 OVC085 13/10 A2983 RMK AO2 PK WND 28026/0317 LTG DSNT SE RAB39E50 SLP089 P0000 T01330100

More Conditions Fewer Conditions

10-Day Weather Forecast

Almanac

Astronomy

Apr. 18, 2015 Rise Set
Actual Time
Civil Twilight
Nautical Twilight
Astronomical Twilight
Moon
Length of Visible Light
Length of Day
Tomorrow will be .
, % of the Moon is Illuminated

Today's Extremes

State Highs State Lows

Community

WunderPhotos

Upload Photos

1,814,721 photos uploaded!

WunderBlogs® & News

Nearby

Air Quality

  Air Quality AQ Index Pollutant
Not available.

Snow Depth

Station Depth Elevation

Earthquake Activity

City Distance Mag. Time & Date
Minimum magnitude displayed is 2.5.

Coastal Water Temperatures

Place Temperature

Stations

Nearby Weather Stations

Station Location Temp. Windchill Dew Point Humidity Wind Precip. Elev Updated Type